sensor_id;sensor_type;location;lat;lon;timestamp;temperature;humidity
50162;DHT22;36061;48.116;11.612;2023-02-26T00:00:19;0.40;99.90
50162;DHT22;36061;48.116;11.612;2023-02-26T00:02:46;0.40;99.90
50162;DHT22;36061;48.116;11.612;2023-02-26T00:05:17;0.30;99.90
50162;DHT22;36061;48.116;11.612;2023-02-26T00:07:44;0.20;99.90
50162;DHT22;36061;48.116;11.612;2023-02-26T00:10:13;0.20;99.90
50162;DHT22;36061;48.116;11.612;2023-02-26T00:12:44;0.20;99.90
50162;DHT22;36061;48.116;11.612;2023-02-26T00:15:12;0.20;99.90
50162;DHT22;36061;48.116;11.612;2023-02-26T00:17:47;0.20;99.90
50162;DHT22;36061;48.116;11.612;2023-02-26T00:20:17;0.20;99.90
50162;DHT22;36061;48.116;11.612;2023-02-26T00:22:48;0.20;99.90
50162;DHT22;36061;48.116;11.612;2023-02-26T00:25:19;0.20;99.90
50162;DHT22;36061;48.116;11.612;2023-02-26T00:27:47;0.20;99.90
50162;DHT22;36061;48.116;11.612;2023-02-26T00:30:15;0.20;99.90
50162;DHT22;36061;48.116;11.612;2023-02-26T00:32:42;0.20;99.90
50162;DHT22;36061;48.116;11.612;2023-02-26T00:35:13;0.30;99.90
50162;DHT22;36061;48.116;11.612;2023-02-26T00:38:01;0.30;99.90
50162;DHT22;36061;48.116;11.612;2023-02-26T00:40:35;0.20;99.90
50162;DHT22;36061;48.116;11.612;2023-02-26T00:43:05;0.20;99.90
50162;DHT22;36061;48.116;11.612;2023-02-26T00:45:34;0.20;99.90
50162;DHT22;36061;48.116;11.612;2023-02-26T00:48:20;0.20;99.90
50162;DHT22;36061;48.116;11.612;2023-02-26T00:50:56;0.20;99.90
50162;DHT22;36061;48.116;11.612;2023-02-26T00:53:30;0.30;99.90
50162;DHT22;36061;48.116;11.612;2023-02-26T00:56:02;0.20;99.90
50162;DHT22;36061;48.116;11.612;2023-02-26T00:58:29;0.20;99.90
50162;DHT22;36061;48.116;11.612;2023-02-26T01:00:56;0.20;99.90
50162;DHT22;36061;48.116;11.612;2023-02-26T01:03:24;0.20;99.90
50162;DHT22;36061;48.116;11.612;2023-02-26T01:05:51;0.10;99.90
50162;DHT22;36061;48.116;11.612;2023-02-26T01:08:23;0.10;99.90
50162;DHT22;36061;48.116;11.612;2023-02-26T01:10:53;0.10;99.90
50162;DHT22;36061;48.116;11.612;2023-02-26T01:13:22;0.10;99.90
50162;DHT22;36061;48.116;11.612;2023-02-26T01:15:54;0.20;99.90
50162;DHT22;36061;48.116;11.612;2023-02-26T01:18:26;0.30;99.90
50162;DHT22;36061;48.116;11.612;2023-02-26T01:20:56;0.20;99.90
50162;DHT22;36061;48.116;11.612;2023-02-26T01:23:31;0.20;99.90
50162;DHT22;36061;48.116;11.612;2023-02-26T01:26:02;0.10;99.90
50162;DHT22;36061;48.116;11.612;2023-02-26T01:28:34;0.10;99.90
50162;DHT22;36061;48.116;11.612;2023-02-26T01:31:04;0.10;99.90
50162;DHT22;36061;48.116;11.612;2023-02-26T01:33:37;0.00;99.90
50162;DHT22;36061;48.116;11.612;2023-02-26T01:36:08;0.00;99.90
50162;DHT22;36061;48.116;11.612;2023-02-26T01:38:39;0.00;99.90
50162;DHT22;36061;48.116;11.612;2023-02-26T01:41:16;0.00;99.90
50162;DHT22;36061;48.116;11.612;2023-02-26T01:49:39;0.00;99.90
50162;DHT22;36061;48.116;11.612;2023-02-26T01:55:16;-0.20;99.90
50162;DHT22;36061;48.116;11.612;2023-02-26T01:57:46;-0.20;99.90
50162;DHT22;36061;48.116;11.612;2023-02-26T02:00:17;-0.20;99.90
50162;DHT22;36061;48.116;11.612;2023-02-26T02:02:44;-0.20;99.90
50162;DHT22;36061;48.116;11.612;2023-02-26T02:05:16;-0.20;99.90
50162;DHT22;36061;48.116;11.612;2023-02-26T02:07:45;-0.20;99.90
50162;DHT22;36061;48.116;11.612;2023-02-26T02:10:12;-0.20;99.90
50162;DHT22;36061;48.116;11.612;2023-02-26T02:12:46;-0.20;99.90
50162;DHT22;36061;48.116;11.612;2023-02-26T02:15:23;-0.20;99.90
50162;DHT22;36061;48.116;11.612;2023-02-26T02:17:58;-0.20;99.90
50162;DHT22;36061;48.116;11.612;2023-02-26T02:20:46;-0.20;99.90
50162;DHT22;36061;48.116;11.612;2023-02-26T02:23:22;-0.10;99.90
50162;DHT22;36061;48.116;11.612;2023-02-26T02:29:07;-0.20;99.90
50162;DHT22;36061;48.116;11.612;2023-02-26T02:31:44;-0.10;99.90
50162;DHT22;36061;48.116;11.612;2023-02-26T02:34:17;-0.20;99.90
50162;DHT22;36061;48.116;11.612;2023-02-26T02:36:50;-0.30;99.90
50162;DHT22;36061;48.116;11.612;2023-02-26T02:39:21;-0.30;99.90
50162;DHT22;36061;48.116;11.612;2023-02-26T02:41:53;-0.30;99.90
50162;DHT22;36061;48.116;11.612;2023-02-26T02:44:24;-0.30;99.90
50162;DHT22;36061;48.116;11.612;2023-02-26T02:46:55;-0.30;99.90
50162;DHT22;36061;48.116;11.612;2023-02-26T02:49:28;-0.40;99.90
50162;DHT22;36061;48.116;11.612;2023-02-26T02:52:00;-0.40;99.90
50162;DHT22;36061;48.116;11.612;2023-02-26T02:54:33;-0.40;99.90
50162;DHT22;36061;48.116;11.612;2023-02-26T02:57:05;-0.40;99.90
50162;DHT22;36061;48.116;11.612;2023-02-26T02:59:40;-0.40;99.90
50162;DHT22;36061;48.116;11.612;2023-02-26T03:02:13;-0.40;99.90
50162;DHT22;36061;48.116;11.612;2023-02-26T03:04:43;-0.40;99.90
50162;DHT22;36061;48.116;11.612;2023-02-26T03:07:10;-0.30;99.90
50162;DHT22;36061;48.116;11.612;2023-02-26T03:09:38;-0.40;99.90
50162;DHT22;36061;48.116;11.612;2023-02-26T03:12:05;-0.40;99.90
50162;DHT22;36061;48.116;11.612;2023-02-26T03:14:33;-0.50;99.90
50162;DHT22;36061;48.116;11.612;2023-02-26T03:17:18;-0.40;99.90
50162;DHT22;36061;48.116;11.612;2023-02-26T03:19:57;-0.50;99.90
50162;DHT22;36061;48.116;11.612;2023-02-26T03:22:31;-0.60;99.90
50162;DHT22;36061;48.116;11.612;2023-02-26T03:25:06;-0.40;99.90
50162;DHT22;36061;48.116;11.612;2023-02-26T03:27:38;-0.50;99.90
50162;DHT22;36061;48.116;11.612;2023-02-26T03:30:12;-0.50;99.90
50162;DHT22;36061;48.116;11.612;2023-02-26T03:32:51;-0.50;99.90
50162;DHT22;36061;48.116;11.612;2023-02-26T03:35:26;-0.60;99.90
50162;DHT22;36061;48.116;11.612;2023-02-26T03:37:59;-0.60;99.90
50162;DHT22;36061;48.116;11.612;2023-02-26T03:40:30;-0.60;99.90
50162;DHT22;36061;48.116;11.612;2023-02-26T03:43:05;-0.60;99.90
50162;DHT22;36061;48.116;11.612;2023-02-26T03:45:34;-0.50;99.90
50162;DHT22;36061;48.116;11.612;2023-02-26T03:48:06;-0.60;99.90
50162;DHT22;36061;48.116;11.612;2023-02-26T03:50:37;-0.60;99.90
50162;DHT22;36061;48.116;11.612;2023-02-26T03:53:50;-0.70;99.90
50162;DHT22;36061;48.116;11.612;2023-02-26T03:56:24;-0.70;99.90
50162;DHT22;36061;48.116;11.612;2023-02-26T03:59:14;-0.70;99.90
50162;DHT22;36061;48.116;11.612;2023-02-26T04:01:48;-0.80;99.90
50162;DHT22;36061;48.116;11.612;2023-02-26T04:04:22;-0.90;99.90
50162;DHT22;36061;48.116;11.612;2023-02-26T04:06:51;-0.90;99.90
50162;DHT22;36061;48.116;11.612;2023-02-26T04:09:20;-1.00;99.90
50162;DHT22;36061;48.116;11.612;2023-02-26T04:11:49;-0.90;99.90
50162;DHT22;36061;48.116;11.612;2023-02-26T04:14:17;-0.90;99.90
50162;DHT22;36061;48.116;11.612;2023-02-26T04:16:45;-0.90;99.90
50162;DHT22;36061;48.116;11.612;2023-02-26T04:19:12;-0.90;99.90
50162;DHT22;36061;48.116;11.612;2023-02-26T04:21:42;-0.90;99.90
50162;DHT22;36061;48.116;11.612;2023-02-26T04:24:10;-0.80;99.90
50162;DHT22;36061;48.116;11.612;2023-02-26T04:26:37;-0.90;99.90
50162;DHT22;36061;48.116;11.612;2023-02-26T04:29:05;-0.90;99.90
50162;DHT22;36061;48.116;11.612;2023-02-26T04:31:33;-0.90;99.90
50162;DHT22;36061;48.116;11.612;2023-02-26T04:34:01;-0.90;99.90
50162;DHT22;36061;48.116;11.612;2023-02-26T04:36:28;-1.00;99.90
50162;DHT22;36061;48.116;11.612;2023-02-26T04:38:59;-1.00;99.90
50162;DHT22;36061;48.116;11.612;2023-02-26T04:41:26;-1.10;99.90
50162;DHT22;36061;48.116;11.612;2023-02-26T04:43:53;-1.10;99.90
50162;DHT22;36061;48.116;11.612;2023-02-26T04:46:26;-1.10;99.90
50162;DHT22;36061;48.116;11.612;2023-02-26T04:48:54;-1.10;99.90
50162;DHT22;36061;48.116;11.612;2023-02-26T04:51:21;-1.20;99.90
50162;DHT22;36061;48.116;11.612;2023-02-26T04:53:50;-1.20;99.90
50162;DHT22;36061;48.116;11.612;2023-02-26T04:56:19;-1.30;99.90
50162;DHT22;36061;48.116;11.612;2023-02-26T04:58:47;-1.30;99.90
50162;DHT22;36061;48.116;11.612;2023-02-26T05:01:19;-1.30;99.90
50162;DHT22;36061;48.116;11.612;2023-02-26T05:03:47;-1.40;99.90
50162;DHT22;36061;48.116;11.612;2023-02-26T05:06:14;-1.30;99.90
50162;DHT22;36061;48.116;11.612;2023-02-26T05:08:41;-1.40;99.90
50162;DHT22;36061;48.116;11.612;2023-02-26T05:11:10;-1.40;99.90
50162;DHT22;36061;48.116;11.612;2023-02-26T05:13:38;-1.50;99.90
50162;DHT22;36061;48.116;11.612;2023-02-26T05:16:06;-1.50;99.90
50162;DHT22;36061;48.116;11.612;2023-02-26T05:18:34;-1.50;99.90
50162;DHT22;36061;48.116;11.612;2023-02-26T05:21:03;-1.60;99.90
50162;DHT22;36061;48.116;11.612;2023-02-26T05:23:31;-1.50;99.90
50162;DHT22;36061;48.116;11.612;2023-02-26T05:25:59;-1.50;99.90
50162;DHT22;36061;48.116;11.612;2023-02-26T05:28:26;-1.60;99.90
50162;DHT22;36061;48.116;11.612;2023-02-26T05:30:56;-1.60;99.90
50162;DHT22;36061;48.116;11.612;2023-02-26T05:33:24;-1.60;99.90
50162;DHT22;36061;48.116;11.612;2023-02-26T05:35:51;-1.70;99.90
50162;DHT22;36061;48.116;11.612;2023-02-26T05:38:19;-1.80;99.90
50162;DHT22;36061;48.116;11.612;2023-02-26T05:40:46;-1.80;99.90
50162;DHT22;36061;48.116;11.612;2023-02-26T05:43:13;-1.70;99.90
50162;DHT22;36061;48.116;11.612;2023-02-26T05:45:40;-1.70;99.90
50162;DHT22;36061;48.116;11.612;2023-02-26T05:48:09;-1.70;99.90
50162;DHT22;36061;48.116;11.612;2023-02-26T05:50:37;-1.70;99.90
50162;DHT22;36061;48.116;11.612;2023-02-26T05:53:04;-1.70;99.90
50162;DHT22;36061;48.116;11.612;2023-02-26T05:55:31;-1.70;99.90
50162;DHT22;36061;48.116;11.612;2023-02-26T05:57:58;-1.70;99.90
50162;DHT22;36061;48.116;11.612;2023-02-26T06:00:26;-1.80;99.90
50162;DHT22;36061;48.116;11.612;2023-02-26T06:02:53;-1.80;99.90
50162;DHT22;36061;48.116;11.612;2023-02-26T06:05:22;-1.80;99.90
50162;DHT22;36061;48.116;11.612;2023-02-26T06:07:50;-1.80;99.90
50162;DHT22;36061;48.116;11.612;2023-02-26T06:10:17;-2.00;99.90
50162;DHT22;36061;48.116;11.612;2023-02-26T06:12:44;-2.00;99.90
50162;DHT22;36061;48.116;11.612;2023-02-26T06:15:12;-2.10;99.90
50162;DHT22;36061;48.116;11.612;2023-02-26T06:17:39;-2.10;99.90
50162;DHT22;36061;48.116;11.612;2023-02-26T06:20:07;-2.00;99.90
50162;DHT22;36061;48.116;11.612;2023-02-26T06:22:36;-2.00;99.90
50162;DHT22;36061;48.116;11.612;2023-02-26T06:25:04;-2.00;99.90
50162;DHT22;36061;48.116;11.612;2023-02-26T06:27:32;-1.90;99.90
50162;DHT22;36061;48.116;11.612;2023-02-26T06:29:59;-1.90;99.90
50162;DHT22;36061;48.116;11.612;2023-02-26T06:32:26;-1.80;99.90
50162;DHT22;36061;48.116;11.612;2023-02-26T06:34:53;-1.80;99.90
50162;DHT22;36061;48.116;11.612;2023-02-26T06:37:21;-1.70;99.90
50162;DHT22;36061;48.116;11.612;2023-02-26T06:39:49;-1.70;99.90
50162;DHT22;36061;48.116;11.612;2023-02-26T06:42:16;-1.70;99.90
50162;DHT22;36061;48.116;11.612;2023-02-26T06:44:44;-1.70;99.90
50162;DHT22;36061;48.116;11.612;2023-02-26T06:47:11;-1.60;99.90
50162;DHT22;36061;48.116;11.612;2023-02-26T06:49:38;-1.60;99.90
50162;DHT22;36061;48.116;11.612;2023-02-26T06:52:05;-1.60;99.90
50162;DHT22;36061;48.116;11.612;2023-02-26T06:54:33;-1.50;99.90
50162;DHT22;36061;48.116;11.612;2023-02-26T06:57:02;-1.60;99.90
50162;DHT22;36061;48.116;11.612;2023-02-26T06:59:30;-1.50;99.90
50162;DHT22;36061;48.116;11.612;2023-02-26T07:01:57;-1.50;99.90
50162;DHT22;36061;48.116;11.612;2023-02-26T07:04:24;-1.50;99.90
50162;DHT22;36061;48.116;11.612;2023-02-26T07:06:51;-1.50;99.90
50162;DHT22;36061;48.116;11.612;2023-02-26T07:09:18;-1.50;99.90
50162;DHT22;36061;48.116;11.612;2023-02-26T07:11:46;-1.40;99.90
50162;DHT22;36061;48.116;11.612;2023-02-26T07:14:14;-1.40;99.90
50162;DHT22;36061;48.116;11.612;2023-02-26T07:16:42;-1.30;99.90
50162;DHT22;36061;48.116;11.612;2023-02-26T07:19:09;-1.30;99.90
50162;DHT22;36061;48.116;11.612;2023-02-26T07:21:36;-1.20;99.90
50162;DHT22;36061;48.116;11.612;2023-02-26T07:24:04;-1.20;99.90
50162;DHT22;36061;48.116;11.612;2023-02-26T07:26:32;-1.20;99.90
50162;DHT22;36061;48.116;11.612;2023-02-26T07:28:59;-1.20;99.90
50162;DHT22;36061;48.116;11.612;2023-02-26T07:31:28;-1.20;99.90
50162;DHT22;36061;48.116;11.612;2023-02-26T07:33:55;-1.20;99.90
50162;DHT22;36061;48.116;11.612;2023-02-26T07:36:23;-1.20;99.90
50162;DHT22;36061;48.116;11.612;2023-02-26T07:38:50;-1.10;99.90
50162;DHT22;36061;48.116;11.612;2023-02-26T07:41:17;-1.00;99.90
50162;DHT22;36061;48.116;11.612;2023-02-26T07:43:44;-1.00;99.90
50162;DHT22;36061;48.116;11.612;2023-02-26T07:46:12;-1.00;99.90
50162;DHT22;36061;48.116;11.612;2023-02-26T07:48:40;-0.90;99.90
50162;DHT22;36061;48.116;11.612;2023-02-26T07:51:08;-0.80;99.90
50162;DHT22;36061;48.116;11.612;2023-02-26T07:53:36;-0.70;99.90
50162;DHT22;36061;48.116;11.612;2023-02-26T07:56:03;-0.70;99.90
50162;DHT22;36061;48.116;11.612;2023-02-26T07:58:31;-0.70;99.90
50162;DHT22;36061;48.116;11.612;2023-02-26T08:00:58;-0.70;99.90
50162;DHT22;36061;48.116;11.612;2023-02-26T08:03:25;-0.70;99.90
50162;DHT22;36061;48.116;11.612;2023-02-26T08:05:54;-0.80;99.90
50162;DHT22;36061;48.116;11.612;2023-02-26T08:08:21;-0.80;99.90
50162;DHT22;36061;48.116;11.612;2023-02-26T08:10:49;-0.80;99.90
50162;DHT22;36061;48.116;11.612;2023-02-26T08:13:16;-0.80;99.90
50162;DHT22;36061;48.116;11.612;2023-02-26T08:15:43;-0.80;99.90
50162;DHT22;36061;48.116;11.612;2023-02-26T08:18:11;-0.90;99.90
50162;DHT22;36061;48.116;11.612;2023-02-26T08:20:38;-0.90;99.90
50162;DHT22;36061;48.116;11.612;2023-02-26T08:23:07;-0.80;99.90
50162;DHT22;36061;48.116;11.612;2023-02-26T08:25:34;-0.70;99.90
50162;DHT22;36061;48.116;11.612;2023-02-26T08:28:01;-0.80;99.90
50162;DHT22;36061;48.116;11.612;2023-02-26T08:30:29;-0.80;99.90
50162;DHT22;36061;48.116;11.612;2023-02-26T08:32:56;-0.80;99.90
50162;DHT22;36061;48.116;11.612;2023-02-26T08:35:23;-0.70;99.90
50162;DHT22;36061;48.116;11.612;2023-02-26T08:37:50;-0.70;99.90
50162;DHT22;36061;48.116;11.612;2023-02-26T08:40:20;-0.60;99.90
50162;DHT22;36061;48.116;11.612;2023-02-26T08:42:48;-0.70;99.90
50162;DHT22;36061;48.116;11.612;2023-02-26T08:45:15;-0.70;99.90
50162;DHT22;36061;48.116;11.612;2023-02-26T08:47:42;-0.70;99.90
50162;DHT22;36061;48.116;11.612;2023-02-26T08:50:11;-0.60;99.90
50162;DHT22;36061;48.116;11.612;2023-02-26T08:52:38;-0.60;99.90
50162;DHT22;36061;48.116;11.612;2023-02-26T08:55:07;-0.50;99.90
50162;DHT22;36061;48.116;11.612;2023-02-26T08:57:36;-0.50;99.90
50162;DHT22;36061;48.116;11.612;2023-02-26T09:00:04;-0.50;99.90
50162;DHT22;36061;48.116;11.612;2023-02-26T09:02:35;-0.50;99.90
50162;DHT22;36061;48.116;11.612;2023-02-26T09:05:02;-0.50;99.90
50162;DHT22;36061;48.116;11.612;2023-02-26T09:07:30;-0.50;99.90
50162;DHT22;36061;48.116;11.612;2023-02-26T09:09:57;-0.50;99.90
50162;DHT22;36061;48.116;11.612;2023-02-26T09:12:24;-0.50;99.90
50162;DHT22;36061;48.116;11.612;2023-02-26T09:14:53;-0.50;99.90
50162;DHT22;36061;48.116;11.612;2023-02-26T09:17:22;-0.60;99.90
50162;DHT22;36061;48.116;11.612;2023-02-26T09:19:49;-0.60;99.90
50162;DHT22;36061;48.116;11.612;2023-02-26T09:22:17;-0.60;99.90
50162;DHT22;36061;48.116;11.612;2023-02-26T09:24:44;-0.60;99.90
50162;DHT22;36061;48.116;11.612;2023-02-26T09:27:11;-0.60;99.90
50162;DHT22;36061;48.116;11.612;2023-02-26T09:29:38;-0.60;99.90
50162;DHT22;36061;48.116;11.612;2023-02-26T09:32:07;-0.60;99.90
50162;DHT22;36061;48.116;11.612;2023-02-26T09:34:34;-0.60;99.90
50162;DHT22;36061;48.116;11.612;2023-02-26T09:37:02;-0.60;99.90
50162;DHT22;36061;48.116;11.612;2023-02-26T09:39:29;-0.60;99.90
50162;DHT22;36061;48.116;11.612;2023-02-26T09:41:59;-0.50;99.90
50162;DHT22;36061;48.116;11.612;2023-02-26T09:44:28;-0.30;99.90
50162;DHT22;36061;48.116;11.612;2023-02-26T09:47:01;0.00;99.90
50162;DHT22;36061;48.116;11.612;2023-02-26T09:49:45;0.20;99.90
50162;DHT22;36061;48.116;11.612;2023-02-26T09:52:20;0.30;99.90
50162;DHT22;36061;48.116;11.612;2023-02-26T09:54:51;0.40;99.90
50162;DHT22;36061;48.116;11.612;2023-02-26T09:57:29;0.40;99.90
50162;DHT22;36061;48.116;11.612;2023-02-26T09:59:57;0.40;99.90
50162;DHT22;36061;48.116;11.612;2023-02-26T10:02:34;0.40;99.90
50162;DHT22;36061;48.116;11.612;2023-02-26T10:05:16;0.30;99.90
50162;DHT22;36061;48.116;11.612;2023-02-26T10:07:47;0.30;99.90
50162;DHT22;36061;48.116;11.612;2023-02-26T10:10:22;0.10;99.90
50162;DHT22;36061;48.116;11.612;2023-02-26T10:12:51;0.10;99.90
50162;DHT22;36061;48.116;11.612;2023-02-26T10:15:21;0.00;99.90
50162;DHT22;36061;48.116;11.612;2023-02-26T10:18:08;-0.10;99.90
50162;DHT22;36061;48.116;11.612;2023-02-26T10:20:42;-0.10;99.90
50162;DHT22;36061;48.116;11.612;2023-02-26T10:23:19;0.00;99.90
50162;DHT22;36061;48.116;11.612;2023-02-26T10:25:50;0.00;99.90
50162;DHT22;36061;48.116;11.612;2023-02-26T10:28:36;-0.10;99.90
50162;DHT22;36061;48.116;11.612;2023-02-26T10:31:08;-0.10;99.90
50162;DHT22;36061;48.116;11.612;2023-02-26T10:33:45;0.00;99.90
50162;DHT22;36061;48.116;11.612;2023-02-26T10:36:18;0.10;99.90
50162;DHT22;36061;48.116;11.612;2023-02-26T10:38:51;0.10;99.90
50162;DHT22;36061;48.116;11.612;2023-02-26T10:41:21;0.30;99.90
50162;DHT22;36061;48.116;11.612;2023-02-26T10:43:54;0.40;99.90
50162;DHT22;36061;48.116;11.612;2023-02-26T10:46:28;0.40;99.90
50162;DHT22;36061;48.116;11.612;2023-02-26T10:49:14;0.40;99.90
50162;DHT22;36061;48.116;11.612;2023-02-26T10:51:46;0.30;99.90
50162;DHT22;36061;48.116;11.612;2023-02-26T10:54:15;0.30;99.90
50162;DHT22;36061;48.116;11.612;2023-02-26T10:56:45;0.30;99.90
50162;DHT22;36061;48.116;11.612;2023-02-26T10:59:13;0.40;99.90
50162;DHT22;36061;48.116;11.612;2023-02-26T11:01:41;0.40;99.90
50162;DHT22;36061;48.116;11.612;2023-02-26T11:04:11;0.50;99.90
50162;DHT22;36061;48.116;11.612;2023-02-26T11:06:41;0.50;99.90
50162;DHT22;36061;48.116;11.612;2023-02-26T11:09:19;0.60;99.90
50162;DHT22;36061;48.116;11.612;2023-02-26T11:11:51;0.70;99.90
50162;DHT22;36061;48.116;11.612;2023-02-26T11:14:20;0.70;99.90
50162;DHT22;36061;48.116;11.612;2023-02-26T11:16:49;0.80;99.90
50162;DHT22;36061;48.116;11.612;2023-02-26T11:19:22;0.80;99.90
50162;DHT22;36061;48.116;11.612;2023-02-26T11:21:52;0.70;99.90
50162;DHT22;36061;48.116;11.612;2023-02-26T11:24:27;0.90;99.90
50162;DHT22;36061;48.116;11.612;2023-02-26T11:26:57;0.90;99.90
50162;DHT22;36061;48.116;11.612;2023-02-26T11:29:35;0.90;99.90
50162;DHT22;36061;48.116;11.612;2023-02-26T11:32:04;0.90;99.90
50162;DHT22;36061;48.116;11.612;2023-02-26T11:34:32;1.00;99.90
50162;DHT22;36061;48.116;11.612;2023-02-26T11:37:00;1.00;99.90
50162;DHT22;36061;48.116;11.612;2023-02-26T11:39:32;1.10;99.90
50162;DHT22;36061;48.116;11.612;2023-02-26T11:42:00;1.10;99.90
50162;DHT22;36061;48.116;11.612;2023-02-26T11:44:34;1.00;99.90
50162;DHT22;36061;48.116;11.612;2023-02-26T11:47:09;0.90;99.90
50162;DHT22;36061;48.116;11.612;2023-02-26T11:49:41;0.80;99.90
50162;DHT22;36061;48.116;11.612;2023-02-26T11:52:21;0.70;99.90
50162;DHT22;36061;48.116;11.612;2023-02-26T11:54:58;0.60;99.90
50162;DHT22;36061;48.116;11.612;2023-02-26T11:57:28;0.60;99.90
50162;DHT22;36061;48.116;11.612;2023-02-26T11:59:57;0.60;99.90
50162;DHT22;36061;48.116;11.612;2023-02-26T12:02:30;0.70;99.90
50162;DHT22;36061;48.116;11.612;2023-02-26T12:05:02;1.00;99.90
50162;DHT22;36061;48.116;11.612;2023-02-26T12:07:31;1.30;99.90
50162;DHT22;36061;48.116;11.612;2023-02-26T12:10:00;1.40;99.90
50162;DHT22;36061;48.116;11.612;2023-02-26T12:12:44;1.40;99.90
50162;DHT22;36061;48.116;11.612;2023-02-26T12:15:26;0.60;99.90
50162;DHT22;36061;48.116;11.612;2023-02-26T12:21:00;1.00;99.90
50162;DHT22;36061;48.116;11.612;2023-02-26T12:23:46;0.20;99.90
50162;DHT22;36061;48.116;11.612;2023-02-26T12:26:24;0.70;99.90
50162;DHT22;36061;48.116;11.612;2023-02-26T12:29:18;0.60;99.90
50162;DHT22;36061;48.116;11.612;2023-02-26T12:31:59;0.60;99.90
50162;DHT22;36061;48.116;11.612;2023-02-26T12:37:48;0.70;99.90
50162;DHT22;36061;48.116;11.612;2023-02-26T12:40:32;1.00;99.90
50162;DHT22;36061;48.116;11.612;2023-02-26T12:43:08;1.20;99.90
50162;DHT22;36061;48.116;11.612;2023-02-26T12:45:45;1.30;99.90
50162;DHT22;36061;48.116;11.612;2023-02-26T12:48:50;1.30;99.90
50162;DHT22;36061;48.116;11.612;2023-02-26T12:51:30;1.30;99.90
50162;DHT22;36061;48.116;11.612;2023-02-26T12:54:20;1.20;99.90
50162;DHT22;36061;48.116;11.612;2023-02-26T13:00:09;1.40;99.90
50162;DHT22;36061;48.116;11.612;2023-02-26T13:05:56;1.60;99.90
50162;DHT22;36061;48.116;11.612;2023-02-26T13:08:28;1.70;99.90
50162;DHT22;36061;48.116;11.612;2023-02-26T13:11:05;1.70;99.90
50162;DHT22;36061;48.116;11.612;2023-02-26T13:16:37;2.00;99.90
50162;DHT22;36061;48.116;11.612;2023-02-26T13:19:15;2.20;99.90
50162;DHT22;36061;48.116;11.612;2023-02-26T13:21:49;2.20;99.90
50162;DHT22;36061;48.116;11.612;2023-02-26T13:24:21;2.10;99.90
50162;DHT22;36061;48.116;11.612;2023-02-26T13:26:50;2.00;99.90
50162;DHT22;36061;48.116;11.612;2023-02-26T13:29:22;1.90;99.90
50162;DHT22;36061;48.116;11.612;2023-02-26T13:31:55;1.80;99.90
50162;DHT22;36061;48.116;11.612;2023-02-26T13:34:34;1.80;99.90
50162;DHT22;36061;48.116;11.612;2023-02-26T13:37:04;1.70;99.90
50162;DHT22;36061;48.116;11.612;2023-02-26T13:39:39;1.60;99.90
50162;DHT22;36061;48.116;11.612;2023-02-26T13:42:17;1.60;99.90
50162;DHT22;36061;48.116;11.612;2023-02-26T13:44:53;1.60;99.90
50162;DHT22;36061;48.116;11.612;2023-02-26T13:47:39;1.60;99.90
50162;DHT22;36061;48.116;11.612;2023-02-26T13:50:22;1.50;99.90
50162;DHT22;36061;48.116;11.612;2023-02-26T13:52:55;1.30;99.90
50162;DHT22;36061;48.116;11.612;2023-02-26T13:55:39;1.20;99.90
50162;DHT22;36061;48.116;11.612;2023-02-26T13:58:34;1.10;99.90
50162;DHT22;36061;48.116;11.612;2023-02-26T14:01:08;0.90;99.90
50162;DHT22;36061;48.116;11.612;2023-02-26T14:03:45;0.90;99.90
50162;DHT22;36061;48.116;11.612;2023-02-26T14:06:37;1.10;99.90
50162;DHT22;36061;48.116;11.612;2023-02-26T14:09:28;1.20;99.90
50162;DHT22;36061;48.116;11.612;2023-02-26T14:12:00;1.30;99.90
50162;DHT22;36061;48.116;11.612;2023-02-26T14:14:36;1.20;99.90
50162;DHT22;36061;48.116;11.612;2023-02-26T14:17:25;1.10;99.90
50162;DHT22;36061;48.116;11.612;2023-02-26T14:20:22;1.10;99.90
50162;DHT22;36061;48.116;11.612;2023-02-26T14:22:52;1.10;99.90
50162;DHT22;36061;48.116;11.612;2023-02-26T14:25:29;1.10;99.90
50162;DHT22;36061;48.116;11.612;2023-02-26T14:28:33;1.10;99.90
50162;DHT22;36061;48.116;11.612;2023-02-26T14:31:14;1.10;99.90
50162;DHT22;36061;48.116;11.612;2023-02-26T14:33:45;1.10;99.90
50162;DHT22;36061;48.116;11.612;2023-02-26T14:36:19;1.10;99.90
50162;DHT22;36061;48.116;11.612;2023-02-26T14:38:47;1.10;99.90
50162;DHT22;36061;48.116;11.612;2023-02-26T14:41:24;1.10;99.90
50162;DHT22;36061;48.116;11.612;2023-02-26T14:43:59;1.30;99.90
50162;DHT22;36061;48.116;11.612;2023-02-26T14:46:27;1.40;99.90
50162;DHT22;36061;48.116;11.612;2023-02-26T14:48:54;1.50;99.90
50162;DHT22;36061;48.116;11.612;2023-02-26T14:51:31;1.40;99.90
50162;DHT22;36061;48.116;11.612;2023-02-26T14:54:22;1.30;99.90
50162;DHT22;36061;48.116;11.612;2023-02-26T14:57:01;1.30;99.90
50162;DHT22;36061;48.116;11.612;2023-02-26T14:59:54;1.20;99.90
50162;DHT22;36061;48.116;11.612;2023-02-26T15:02:29;1.30;99.90
50162;DHT22;36061;48.116;11.612;2023-02-26T15:05:24;1.20;99.90
50162;DHT22;36061;48.116;11.612;2023-02-26T15:08:14;1.10;99.90
50162;DHT22;36061;48.116;11.612;2023-02-26T15:10:59;0.90;99.90
50162;DHT22;36061;48.116;11.612;2023-02-26T15:13:41;0.80;99.90
50162;DHT22;36061;48.116;11.612;2023-02-26T15:16:25;0.70;99.90
50162;DHT22;36061;48.116;11.612;2023-02-26T15:19:04;0.70;99.90
50162;DHT22;36061;48.116;11.612;2023-02-26T15:21:44;0.60;99.90
50162;DHT22;36061;48.116;11.612;2023-02-26T15:24:13;0.60;99.90
50162;DHT22;36061;48.116;11.612;2023-02-26T15:26:45;0.60;99.90
50162;DHT22;36061;48.116;11.612;2023-02-26T15:29:14;0.70;99.90
50162;DHT22;36061;48.116;11.612;2023-02-26T15:31:46;0.60;99.90
50162;DHT22;36061;48.116;11.612;2023-02-26T15:34:18;0.60;99.90
50162;DHT22;36061;48.116;11.612;2023-02-26T15:36:49;0.60;99.90
50162;DHT22;36061;48.116;11.612;2023-02-26T15:39:17;0.50;99.90
50162;DHT22;36061;48.116;11.612;2023-02-26T15:41:46;0.50;99.90
50162;DHT22;36061;48.116;11.612;2023-02-26T15:44:16;0.50;99.90
50162;DHT22;36061;48.116;11.612;2023-02-26T15:46:47;0.50;99.90
50162;DHT22;36061;48.116;11.612;2023-02-26T15:49:22;0.50;99.90
50162;DHT22;36061;48.116;11.612;2023-02-26T15:51:51;0.60;99.90
50162;DHT22;36061;48.116;11.612;2023-02-26T15:54:21;0.60;99.90
50162;DHT22;36061;48.116;11.612;2023-02-26T15:56:49;0.60;99.90
50162;DHT22;36061;48.116;11.612;2023-02-26T15:59:19;0.60;99.90
50162;DHT22;36061;48.116;11.612;2023-02-26T16:01:49;0.60;99.90
50162;DHT22;36061;48.116;11.612;2023-02-26T16:04:17;0.60;99.90
50162;DHT22;36061;48.116;11.612;2023-02-26T16:06:46;0.60;99.90
50162;DHT22;36061;48.116;11.612;2023-02-26T16:09:17;0.60;99.90
50162;DHT22;36061;48.116;11.612;2023-02-26T16:11:45;0.50;99.90
50162;DHT22;36061;48.116;11.612;2023-02-26T16:14:17;0.50;99.90
50162;DHT22;36061;48.116;11.612;2023-02-26T16:16:50;0.40;99.90
50162;DHT22;36061;48.116;11.612;2023-02-26T16:19:20;0.50;99.90